Pilot Magazine UKGA

About You

Log In Register UKGA membership

Flight planning

Flight planning New flightplan NOTAM map LARS map & NOTAMs Danger area, mil. & TRA activations Weather map GPS route download Find waypoints Your waypoints New waypoint

Forums

Forums Currently discussing "Looking for a Cessna 182 to hire"

Other items

Articles Events Links News Surveys Tips Other users Feedback UKGA membership About UKGA

TAFs

UK

TAF EGAA 221100Z 2212/2312 26008KT 9999 FEW015 SCT020 
      TEMPO 2212/2219 4000 SHRASN SCT007 BKN014CB PROB30 
      TEMPO 2214/2219 1400 SHSN BKN007 PROB40 
      TEMPO 2301/2311 0400 SHSN BKN002
      
TAF EGAC 221100Z 2212/2221 24008KT 9999 FEW014 SCT025 PROB30 
      TEMPO 2214/2219 4000 SHRASN SCT008 BKN014CB
      
TAF AMD EGAE 211738Z 2117/2119 33008KT 9999 FEW012 SCT025 
      TEMPO 2117/2119 33015G25KT 3000 +SHRA SHRASN BKN012 BKN018CB PROB30 
      TEMPO 2117/2119 BKN007
      
TAF EGBB 221056Z 2212/2312 24006KT 9999 FEW030 
      TEMPO 2215/2218 7000 SHRA BKN014CB 
      TEMPO 2218/2222 4000 SHRASN BKN008CB PROB30 
      TEMPO 2219/2222 1500 SHSN BKN004 PROB40 2222/2306 8000 PROB30 
      TEMPO 2309/2312 1500 SHSN BKN004
      
TAF EGBJ 221059Z 2212/2220 21004KT 9999 FEW030 
      TEMPO 2212/2220 7000 SHRA PROB30 
      TEMPO 2215/2220 4000 SHRASN BKN014CB
      
TAF EGCC 221054Z 2212/2318 24008KT 9999 SCT035 PROB30 
      TEMPO 2212/2218 6000 SHRASN BKN012 
      TEMPO 2218/2304 3000 SHRASN BKN008 PROB30 
      TEMPO 2218/2304 1200 +SHRASN SHSN BKN004 
      TEMPO 2304/2318 1200 SHSN BKN004
      
TAF EGCK 221055Z 2212/2221 28014KT 9999 SCT030 PROB40 
      TEMPO 2212/2213 7000 SHRA -SHRASN BKN008 PROB30 
      TEMPO 2213/2221 7000 SHRA -SHRASN BKN014
      
TAF EGCN 221054Z 2212/2312 23007KT 9999 SCT020 PROB30 
      TEMPO 2218/2312 7000 SHRA -SHRASN BKN010
      
TAF EGEC 220758Z 2209/2211 30014KT 9999 SCT018 
      TEMPO 2209/2211 31018G28KT 6000 -SHRASN BKN012 PROB30 
      TEMPO 2209/2211 3000 SHRASNGS BKN008
      
TAF AMD EGFF 221239Z 2212/2312 24006KT 9999 SCT025 
      TEMPO 2212/2220 7000 SHRA PROB40 
      TEMPO 2212/2219 25015G25KT 3000 +SHRA BKN012 BKN025CB PROB30 2303/2309 8000 
      BECMG 2309/2312 30010KT
      
TAF EGGD 221059Z 2212/2312 24007KT 9999 SCT025 
      TEMPO 2214/2220 7000 SHRA BKN012 PROB40 
      TEMPO 2214/2218 3000 +SHRA BKN007 BKN020CB PROB30 2300/2309 2000 BR BKN003 
      BECMG 2309/2312 30010KT
      
TAF EGGP 221054Z 2212/2312 26008KT 9999 SCT030 PROB30 
      TEMPO 2212/2218 6000 SHRASN BKN012 
      TEMPO 2218/2303 3000 SHRASN BKN009 PROB30 
      TEMPO 2218/2303 1200 +SHRASN SHSN BKN004 
      TEMPO 2303/2312 1200 SHSN BKN004
      
TAF EGGW 221059Z 2212/2312 24007KT 9999 FEW030 PROB40 
      TEMPO 2218/2224 6000 SHRA -SHRASN BKN007 
      TEMPO 2300/2312 7000 BKN005 PROB40 
      TEMPO 2301/2309 2000 BR BKN002
      
TAF EGHC 221058Z 2212/2218 27012KT 9999 SCT025 
      TEMPO 2212/2218 7000 SHRA PROB30 
      TEMPO 2212/2218 28015G25KT 4000 +SHRAGS BKN014CB
      
TAF EGHE 221058Z 2212/2217 27015KT 9999 SCT025 
      TEMPO 2212/2217 7000 SHRA PROB30 
      TEMPO 2212/2217 28015G25KT 4000 +SHRAGS BKN014CB
      
TAF EGHH 221059Z 2212/2221 VRB03KT 9999 FEW025 PROB40 
      TEMPO 2214/2220 3000 +SHRA BKN014CB
      
TAF EGHI 221059Z 2212/2221 VRB03KT 9999 FEW025 PROB40 
      TEMPO 2214/2220 3000 +SHRA BKN014CB
      
TAF EGHQ 221058Z 2212/2221 30010KT 9999 SCT025 
      TEMPO 2212/2221 7000 SHRA PROB30 
      TEMPO 2212/2221 29015G25KT 4000 +SHRAGS BKN014CB
      
TAF EGJA 221100Z 2212/2221 27010KT 9999 FEW015CB SCT020 
      TEMPO 2212/2221 27015G25KT 7000 SHRA BKN015CB PROB30 
      TEMPO 2212/2220 4000 SHRAGS
      
TAF EGJB 221100Z 2212/2221 27011KT 9999 FEW015CB SCT020 
      TEMPO 2212/2221 27015G25KT 7000 SHRA BKN015CB PROB30 
      TEMPO 2212/2219 4000 SHRAGS
      
TAF EGJJ 221100Z 2212/2221 27012KT 9999 FEW015CB SCT020 
      TEMPO 2212/2221 27015G25KT 7000 SHRA BKN015CB PROB30 
      TEMPO 2212/2220 4000 SHRAGS
      
TAF EGKA 221103Z 2212/2219 26008KT 9999 FEW030 PROB30 
      TEMPO 2216/2219 6000 SHRA SHGS BKN012
      
TAF EGKB 221103Z 2212/2221 25008KT 9999 FEW025 PROB30 
      TEMPO 2217/2221 4000 SHRASN BKN008
      
TAF EGKK 221052Z 2212/2318 22005KT 9999 FEW030 PROB30 
      TEMPO 2217/2223 6000 SHRA SHGS BKN012 PROB30 
      TEMPO 2223/2303 28010KT 8000 BKN008 
      TEMPO 2303/2311 6000 BKN005 PROB30 
      TEMPO 2304/2310 2000 BR MIFG BKN002 
      BECMG 2312/2315 30010KT PROB30 
      TEMPO 2315/2318 5000 -SHRASN BKN010
      
TAF AMD EGLC 221216Z 2212/2221 24008KT 9999 FEW030 
      TEMPO 2212/2217 8000 PROB30 
      TEMPO 2217/2221 8000 -SHRA BKN012
      
TAF EGLF 221103Z 2212/2221 24008KT 9999 FEW030 PROB30 
      TEMPO 2215/2218 6000 -SHRASN BKN012
      
TAF EGLL 221052Z 2212/2318 24007KT 9999 FEW040 
      TEMPO 2216/2223 -SHRA BKN012 PROB30 
      TEMPO 2217/2222 8000 -SHRASN PROB40 2223/2310 4000 BR BKN003 
      BECMG 2310/2313 30010KT PROB30 
      TEMPO 2310/2312 6000 BKN007 PROB30 
      TEMPO 2313/2317 8000 -SHRASN
      
TAF EGMC 221103Z 2212/2221 24008KT 9999 FEW030 PROB30 
      TEMPO 2218/2221 6000 -SHRASN BKN012
      
TAF EGMD 221103Z 2212/2221 26008KT 9999 FEW030 PROB40 
      TEMPO 2218/2221 6000 SHRA SHGS BKN012
      
TAF EGNH 221055Z 2212/2221 28014KT 9999 SCT025 PROB30 
      TEMPO 2212/2217 3000 SHRASN BKN010 
      TEMPO 2217/2221 3000 SHRASN BKN010
      
TAF EGNJ 221055Z 2212/2221 24013KT 9999 SCT030 PROB30 
      TEMPO 2218/2221 7000 SHRA -SHRASN BKN010
      
TAF EGNM 221226Z 2212/2312 26015KT 9999 SCT020 PROB30 
      TEMPO 2212/2215 3000 SHRASN BKN009 
      BECMG 2212/2215 25005KT 
      TEMPO 2218/2305 3000 SHRASN BKN009 PROB40 
      TEMPO 2221/2305 1200 +SHRASN SHSN BKN004 
      TEMPO 2305/2312 1200 SHSN BKN002
      
TAF EGNO 221055Z 2212/2221 28011KT 9999 SCT025 PROB30 
      TEMPO 2212/2217 3000 SHRASN BKN010 
      TEMPO 2217/2221 3000 SHRASN BKN010
      
TAF EGNR 221055Z 2212/2221 25009KT 9999 SCT025 PROB40 
      TEMPO 2212/2216 3000 SHRASN BKN008 PROB30 
      TEMPO 2216/2221 3000 SHRASN BKN010
      
TAF EGNS 221100Z 2212/2221 28013KT 9999 FEW022 PROB30 
      TEMPO 2212/2221 7000 -SHRAGS BKN018
      
TAF EGNT 221054Z 2212/2312 25015KT 9999 SCT020 PROB40 
      TEMPO 2212/2214 26018G28KT 
      BECMG 2214/2217 27005KT
      
TAF EGNV 221055Z 2212/2221 25011KT 9999 FEW025
      
TAF EGNX 221056Z 2212/2312 25010KT 9999 FEW025 
      TEMPO 2215/2220 7000 SHRA BKN014CB 
      TEMPO 2220/2301 4000 SHRASN BKN008CB PROB30 
      TEMPO 2220/2301 1500 SHSN BKN004 PROB30 2221/2306 8000 PROB30 
      TEMPO 2309/2312 1500 SHSN BKN004
      
TAF EGPA 221100Z 2212/2221 35020G30KT 9999 SCT016 
      BECMG 2212/2215 29015KT 
      TEMPO 2212/2221 5000 SHRA BKN010 PROB30 
      TEMPO 2212/2215 30018G28KT 3000 SHRASN BKN008 PROB30 
      TEMPO 2215/2221 30017G27KT 1500 SHSN SHGS BKN005
      
TAF EGPB 221100Z 2212/2221 34022G32KT 9999 SCT015 
      BECMG 2212/2215 31020G30KT 
      TEMPO 2212/2221 5000 SHRA BKN010 PROB30 
      TEMPO 2212/2215 3000 SHRASN BKN008 PROB30 
      TEMPO 2215/2221 1500 SHSN BKN005
      
TAF EGPC 221100Z 2212/2221 31015KT 9999 SCT016 
      BECMG 2212/2215 25012KT 
      TEMPO 2212/2221 5000 SHRA BKN012 PROB30 
      TEMPO 2212/2215 26018G28KT 3000 SHRASN BKN007 PROB30 
      TEMPO 2215/2221 26015G25KT 1500 SHSN SHGS BKN005
      
TAF EGPD 221102Z 2212/2312 29012KT 9999 SCT020 PROB30 
      TEMPO 2212/2224 30015G25KT PROB30 
      TEMPO 2212/2215 3000 SHRASN BKN010
      
TAF EGPE 221100Z 2212/2221 23012KT 9999 FEW030 
      TEMPO 2212/2221 5000 SHRASN BKN012 PROB30 
      TEMPO 2212/2221 24015G28KT 1500 SHSN BKN006
      
TAF EGPF 221102Z 2212/2312 26009KT 9999 FEW030 PROB30 
      TEMPO 2212/2218 3000 SHSNRA BKN010 PROB30 
      TEMPO 2218/2312 1500 SHSN BKN005 BKN015CB
      
TAF EGPH 221102Z 2212/2312 24008KT 9999 FEW030
      
TAF EGPI 221100Z 2212/2219 03006KT 9999 SCT025 
      BECMG 2212/2215 33013KT 
      TEMPO 2212/2219 33018G28KT 6000 -SHRASN BKN012 PROB30 
      TEMPO 2212/2219 3000 SHRASNGS BKN008
      
TAF EGPK 221102Z 2212/2312 29009KT 9999 FEW035 PROB40 
      TEMPO 2212/2218 3000 SHSNRA BKN012 PROB40 
      TEMPO 2218/2312 1500 SHSN BKN005 BKN015CB
      
TAF EGPL 221100Z 2212/2218 33015KT 9999 SCT025 
      TEMPO 2212/2218 33020G30KT 6000 -SHRASN BKN010 PROB30 
      TEMPO 2212/2218 1500 +SHGS SHSN BKN006
      
TAF EGPN 221100Z 2212/2217 26009KT 9999 FEW030
      
TAF EGPO 221100Z 2212/2221 31012KT 9999 SCT025 
      TEMPO 2212/2221 33020G30KT 6000 -SHRASN BKN010 PROB30 
      TEMPO 2212/2221 1500 +SHGS SHSN BKN006
      
TAF EGPU 221100Z 2212/2219 32015KT 9999 FEW030 
      TEMPO 2212/2219 34020G30KT 6000 -SHRASN BKN012 PROB30 
      TEMPO 2212/2219 3000 SHRASNGS BKN008
      
TAF EGSC 221102Z 2212/2219 24008KT 9999 FEW030 PROB30 
      TEMPO 2218/2219 6000 -SHRASN BKN012
      
TAF EGSH 221054Z 2212/2221 24008KT 9999 FEW020 PROB30 
      TEMPO 2220/2221 6000 SHRASN BKN010
      
TAF EGSS 221059Z 2212/2318 24007KT 9999 FEW030 PROB40 
      TEMPO 2218/2301 6000 SHRA -SHRASN BKN009 
      TEMPO 2301/2313 7000 BKN006 PROB40 
      TEMPO 2301/2309 2000 BR BKN003 
      BECMG 2314/2317 31010KT PROB30 
      TEMPO 2314/2318 1500 SHSN BKN007
      
TAF EGSY 221059Z 2212/2217 24005KT 9999 FEW030 
      TEMPO 2212/2217 7000 SHRA PROB40 
      TEMPO 2213/2217 3000 +SHRAGS BKN014CB
      
TAF EGTC 221102Z 2212/2218 24010KT 9999 FEW030 PROB30 
      TEMPO 2217/2218 6000 -SHRA BKN012
      
TAF EGTE 221058Z 2212/2215 VRB03KT 9999 SCT025 PROB30 
      TEMPO 2212/2215 7000 SHRA PROB30 
      TEMPO 2212/2215 4000 +SHRAGS BKN014CB
      
TAF EGTK 221102Z 2212/2221 24008KT 9999 FEW030 PROB30 
      TEMPO 2215/2221 4000 SHRASN BKN008
      
TAF EGVN 221052Z 2212/2312 25005KT 9999 FEW045 PROB30 
      TEMPO 2215/2221 4000 SHRASN BKN015CB PROB30 2300/2310 2000 BR
      
TAF EGVP 211050Z 2112/2118 23013KT 9999 FEW020 PROB30 
      TEMPO 2112/2115 SCT022
      
TAF EGWU 221045Z 2212/2306 27006KT 9999 FEW030 
      TEMPO 2217/2223 BKN014 PROB30 
      TEMPO 2217/2222 5000 SHRASN PROB40 2223/2303 5000 BR PROB40 2303/2306 4000 BR BKN004
      
TAF EGXC 221056Z 2212/2306 26012KT 9999 FEW020 PROB30 
      TEMPO 2219/2302 -SHRA SCT020 PROB30 
      TEMPO 2304/2306 3000 BR SCT005
      
TAF EGXE 221048Z 2212/2218 27010KT 9999 FEW022 PROB30 
      TEMPO 2212/2216 SCT022
      
TAF EGXP 221056Z 2212/2218 24012KT 9999 FEW025 PROB30 
      TEMPO 2215/2218 SCT022
      
TAF EGYD 221028Z 2212/2218 25012KT 9999 FEW025 PROB30 
      TEMPO 2212/2213 24016G26KT
      
TAF EGYM 221114Z 2212/2219 24012KT 9999 FEW024
      
TAF EGYP 221004Z 2212/2306 20010KT CAVOK 
      BECMG 2214/2217 23015KT 
      BECMG 2221/2223 VRB05KT 
      TEMPO 2305/2306 7000 RA SCT010
      

About You

Log In Register UKGA membership

Airfields

Interactive airfield map Search by name Search by postcode Search by location Fuel prices Pilot reviews Latest
(No favourites selected)

Flight planning

Flight planning New flightplan NOTAM map LARS map & NOTAMs Danger area, mil. & TRA activations Weather map GPS route download Find waypoints Your waypoints New waypoint

Forums

Forums Currently discussing "Looking for a Cessna 182 to hire"

Other items

Articles Events Links News Surveys Tips Other users Feedback UKGA membership About UKGA